»·PEaware :: N324GM KVBG-KBFL

N324GM :: KVBG-KBFL

FLIGHT INFORMATION

Flight Status: Arrived
Operator: Privately registered:
United States
More flights under this callsign
Pilot: Gavin M. (15591)
Aircraft: BEECH AIRCRAFT BEECH AIRLINER
(B190)
More flights by this aircraft type
Origin: KVBG Vandenberg AFB
United States
Destination: KBFL Meadows
United States
More flights between these airports :: More routes between these airports
Route: EHF V23 CZQ
File this flight plan on PilotEdge
Remarks:
Altitude:
(Current/Filed)
11,000ft
Speed:
(Current/Filed)
200kts
Departed: 09-Oct-17 07:30 PM
Arrived: 09-Oct-17 08:01 PM
Distance/Time
Traveled:
86nm/0:31
Distance/Time
To Go:
Arrived

Flight Plot

Page will automatically refresh every two minutes.

Flight plan parsing failed; only flown route is shown


Map Options




Map Legend


Flown Route
Filed Route
Departure Airport
Arrival Airport
Navaid (VOR, NDB)
Fix

Horizontal Profiles

Position Reports

Time Latitude Longitude Heading Altitude Ground
Speed
09-Oct-17 19:18 34.731413 -120.569222 226 374ft 0kts
09-Oct-17 19:19 34.731413 -120.569222 226 374ft 0kts
09-Oct-17 19:20 34.731413 -120.569222 226 374ft 0kts
09-Oct-17 19:21 34.731413 -120.569222 226 374ft 0kts
09-Oct-17 19:22 34.731413 -120.569222 226 374ft 0kts
09-Oct-17 19:23 34.731413 -120.569222 226 374ft 0kts
09-Oct-17 19:24 34.731413 -120.569222 226 374ft 0kts
09-Oct-17 19:25 34.731413 -120.569222 226 374ft 0kts
09-Oct-17 19:26 34.731413 -120.569222 226 374ft 0kts
09-Oct-17 19:27 34.731413 -120.569222 226 374ft 0kts
09-Oct-17 19:28 34.731413 -120.569223 226 374ft 0kts
09-Oct-17 19:29 34.731546 -120.569929 317 374ft 9kts
09-Oct-17 19:30 34.733201 -120.573472 320 374ft 16kts
09-Oct-17 19:31 34.737530 -120.578439 315 374ft 25kts
09-Oct-17 19:32 34.739526 -120.583364 228 374ft 14kts
09-Oct-17 19:33 34.738810 -120.584398 231 374ft 0kts
09-Oct-17 19:34 34.736604 -120.583463 138 374ft 75kts
09-Oct-17 19:36 34.715294 -120.546925 86 1739ft 163kts
09-Oct-17 19:37 34.723878 -120.490925 54 3922ft 185kts
09-Oct-17 19:38 34.740896 -120.432994 87 5420ft 204kts
09-Oct-17 19:39 34.745383 -120.362765 84 6934ft 210kts
09-Oct-17 19:40 34.751207 -120.298408 83 8294ft 210kts
09-Oct-17 19:41 34.731897 -120.234759 120 9787ft 204kts
09-Oct-17 19:42 34.703733 -120.175318 120 11031ft 212kts
09-Oct-17 19:43 34.671411 -120.107608 120 11047ft 246kts
09-Oct-17 19:44 34.636445 -120.034488 120 11042ft 254kts
09-Oct-17 19:45 34.600964 -119.960443 120 11037ft 255kts
09-Oct-17 19:46 34.565250 -119.886097 120 11025ft 256kts
09-Oct-17 19:47 34.529434 -119.811696 120 11012ft 256kts
09-Oct-17 19:48 34.551047 -119.743959 30 11011ft 256kts
09-Oct-17 19:49 34.612787 -119.700709 28 11004ft 257kts
09-Oct-17 19:50 34.673951 -119.658832 28 11003ft 250kts
09-Oct-17 19:51 34.734032 -119.617719 28 11005ft 248kts
09-Oct-17 19:52 34.793963 -119.576637 28 11008ft 247kts
09-Oct-17 19:53 34.853986 -119.535428 28 11007ft 247kts
09-Oct-17 19:54 34.913560 -119.494475 28 11010ft 247kts
09-Oct-17 19:55 34.973346 -119.453345 28 11022ft 249kts
09-Oct-17 19:56 35.034331 -119.411307 29 11031ft 251kts
09-Oct-17 19:57 35.088803 -119.373295 29 11024ft 253kts
09-Oct-17 19:58 35.142195 -119.336315 30 11021ft 253kts
09-Oct-17 19:59 35.203153 -119.293981 30 10673ft 252kts
09-Oct-17 20:00 35.263104 -119.252318 30 9371ft 247kts
09-Oct-17 20:01 35.322625 -119.210849 31 8067ft 245kts
09-Oct-17 20:02 35.372044 -119.157063 33 6742ft 237kts
09-Oct-17 20:03 35.431760 -119.129319 6 3758ft 240kts
09-Oct-17 20:03 35.470054 -119.117283 111 2264ft 173kts
09-Oct-17 20:05 35.445193 -119.069882 133 518ft 104kts
09-Oct-17 20:06 35.438227 -119.059958 90 511ft 0kts
09-Oct-17 20:07 35.435804 -119.056331 135 511ft 18kts
09-Oct-17 20:07 35.433603 -119.053671 135 511ft 11kts
09-Oct-17 20:08 35.430557 -119.049793 87 511ft 14kts
09-Oct-17 20:09 35.431497 -119.048614 256 511ft 0kts
09-Oct-17 20:13 35.431497 -119.048614 256 511ft 0kts
09-Oct-17 20:14 35.431497 -119.048614 256 511ft 0kts
09-Oct-17 20:15 35.431497 -119.048615 259 511ft 0kts

Navigation Log

Ident Type
Flight plan parsing failed, navigation log unavailable